sensor_id;sensor_type;location;lat;lon;timestamp;temperature;humidity
4530;DHT22;2277;51.626;7.516;2023-11-21T00:01:52;11.10;99.90
4530;DHT22;2277;51.626;7.516;2023-11-21T00:04:18;11.10;99.90
4530;DHT22;2277;51.626;7.516;2023-11-21T00:06:43;11.10;99.90
4530;DHT22;2277;51.626;7.516;2023-11-21T00:09:12;11.10;99.90
4530;DHT22;2277;51.626;7.516;2023-11-21T00:11:38;11.10;99.90
4530;DHT22;2277;51.626;7.516;2023-11-21T00:14:04;11.10;99.90
4530;DHT22;2277;51.626;7.516;2023-11-21T00:16:30;11.00;99.90
4530;DHT22;2277;51.626;7.516;2023-11-21T00:18:55;11.00;99.90
4530;DHT22;2277;51.626;7.516;2023-11-21T00:21:21;11.00;99.90
4530;DHT22;2277;51.626;7.516;2023-11-21T00:23:46;11.00;99.90
4530;DHT22;2277;51.626;7.516;2023-11-21T00:26:12;11.00;99.90
4530;DHT22;2277;51.626;7.516;2023-11-21T00:28:37;11.00;99.90
4530;DHT22;2277;51.626;7.516;2023-11-21T00:31:03;11.00;99.90
4530;DHT22;2277;51.626;7.516;2023-11-21T00:33:29;10.90;99.90
4530;DHT22;2277;51.626;7.516;2023-11-21T00:35:55;10.90;99.90
4530;DHT22;2277;51.626;7.516;2023-11-21T00:38:20;10.90;99.90
4530;DHT22;2277;51.626;7.516;2023-11-21T00:40:46;10.90;99.90
4530;DHT22;2277;51.626;7.516;2023-11-21T00:43:12;10.90;99.90
4530;DHT22;2277;51.626;7.516;2023-11-21T00:45:37;10.90;99.90
4530;DHT22;2277;51.626;7.516;2023-11-21T00:48:03;10.90;99.90
4530;DHT22;2277;51.626;7.516;2023-11-21T00:50:30;10.90;99.90
4530;DHT22;2277;51.626;7.516;2023-11-21T00:52:56;10.90;99.90
4530;DHT22;2277;51.626;7.516;2023-11-21T00:55:22;10.90;99.90
4530;DHT22;2277;51.626;7.516;2023-11-21T00:57:47;10.90;99.90
4530;DHT22;2277;51.626;7.516;2023-11-21T01:00:13;10.90;99.90
4530;DHT22;2277;51.626;7.516;2023-11-21T01:02:45;10.90;99.90
4530;DHT22;2277;51.626;7.516;2023-11-21T01:05:11;10.90;99.90
4530;DHT22;2277;51.626;7.516;2023-11-21T01:07:37;10.80;99.90
4530;DHT22;2277;51.626;7.516;2023-11-21T01:10:03;10.80;99.90
4530;DHT22;2277;51.626;7.516;2023-11-21T01:12:34;10.80;99.90
4530;DHT22;2277;51.626;7.516;2023-11-21T01:15:00;10.90;99.90
4530;DHT22;2277;51.626;7.516;2023-11-21T01:17:26;10.80;99.90
4530;DHT22;2277;51.626;7.516;2023-11-21T01:19:52;10.90;99.90
4530;DHT22;2277;51.626;7.516;2023-11-21T01:22:18;10.90;99.90
4530;DHT22;2277;51.626;7.516;2023-11-21T01:24:47;10.90;99.90
4530;DHT22;2277;51.626;7.516;2023-11-21T01:27:13;10.90;99.90
4530;DHT22;2277;51.626;7.516;2023-11-21T01:29:38;10.90;99.90
4530;DHT22;2277;51.626;7.516;2023-11-21T01:32:04;10.90;99.90
4530;DHT22;2277;51.626;7.516;2023-11-21T01:34:30;10.80;99.90
4530;DHT22;2277;51.626;7.516;2023-11-21T01:36:56;10.80;99.90
4530;DHT22;2277;51.626;7.516;2023-11-21T01:39:21;10.80;99.90
4530;DHT22;2277;51.626;7.516;2023-11-21T01:41:50;10.90;99.90
4530;DHT22;2277;51.626;7.516;2023-11-21T01:44:16;10.80;99.90
4530;DHT22;2277;51.626;7.516;2023-11-21T01:46:42;10.90;99.90
4530;DHT22;2277;51.626;7.516;2023-11-21T01:49:09;10.80;99.90
4530;DHT22;2277;51.626;7.516;2023-11-21T01:51:38;10.80;99.90
4530;DHT22;2277;51.626;7.516;2023-11-21T01:54:05;10.80;99.90
4530;DHT22;2277;51.626;7.516;2023-11-21T01:56:32;10.80;99.90
4530;DHT22;2277;51.626;7.516;2023-11-21T01:58:58;10.70;99.90
4530;DHT22;2277;51.626;7.516;2023-11-21T02:01:23;10.70;99.90
4530;DHT22;2277;51.626;7.516;2023-11-21T02:03:51;10.70;99.90
4530;DHT22;2277;51.626;7.516;2023-11-21T02:06:17;10.70;99.90
4530;DHT22;2277;51.626;7.516;2023-11-21T02:08:44;10.70;99.90
4530;DHT22;2277;51.626;7.516;2023-11-21T02:11:16;10.70;99.90
4530;DHT22;2277;51.626;7.516;2023-11-21T02:13:41;10.60;99.90
4530;DHT22;2277;51.626;7.516;2023-11-21T02:16:11;10.60;99.90
4530;DHT22;2277;51.626;7.516;2023-11-21T02:18:39;10.60;99.90
4530;DHT22;2277;51.626;7.516;2023-11-21T02:21:05;10.60;99.90
4530;DHT22;2277;51.626;7.516;2023-11-21T02:23:30;10.60;99.90
4530;DHT22;2277;51.626;7.516;2023-11-21T02:25:56;10.60;99.90
4530;DHT22;2277;51.626;7.516;2023-11-21T02:28:22;10.60;99.90
4530;DHT22;2277;51.626;7.516;2023-11-21T02:30:51;10.60;99.90
4530;DHT22;2277;51.626;7.516;2023-11-21T02:33:21;10.60;99.90
4530;DHT22;2277;51.626;7.516;2023-11-21T02:35:47;10.50;99.90
4530;DHT22;2277;51.626;7.516;2023-11-21T02:38:13;10.50;99.90
4530;DHT22;2277;51.626;7.516;2023-11-21T02:40:39;10.50;99.90
4530;DHT22;2277;51.626;7.516;2023-11-21T02:43:04;10.50;99.90
4530;DHT22;2277;51.626;7.516;2023-11-21T02:45:31;10.60;99.90
4530;DHT22;2277;51.626;7.516;2023-11-21T02:47:57;10.50;99.90
4530;DHT22;2277;51.626;7.516;2023-11-21T02:50:23;10.50;99.90
4530;DHT22;2277;51.626;7.516;2023-11-21T02:52:49;10.50;99.90
4530;DHT22;2277;51.626;7.516;2023-11-21T02:55:15;10.50;99.90
4530;DHT22;2277;51.626;7.516;2023-11-21T02:57:40;10.50;99.90
4530;DHT22;2277;51.626;7.516;2023-11-21T03:00:06;10.50;99.90
4530;DHT22;2277;51.626;7.516;2023-11-21T03:02:33;10.60;99.90
4530;DHT22;2277;51.626;7.516;2023-11-21T03:05:02;10.60;99.90
4530;DHT22;2277;51.626;7.516;2023-11-21T03:07:27;10.50;99.90
4530;DHT22;2277;51.626;7.516;2023-11-21T03:09:53;10.50;99.90
4530;DHT22;2277;51.626;7.516;2023-11-21T03:12:19;10.60;99.90
4530;DHT22;2277;51.626;7.516;2023-11-21T03:14:45;10.60;99.90
4530;DHT22;2277;51.626;7.516;2023-11-21T03:17:10;10.60;99.90
4530;DHT22;2277;51.626;7.516;2023-11-21T03:19:37;10.60;99.90
4530;DHT22;2277;51.626;7.516;2023-11-21T03:22:03;10.60;99.90
4530;DHT22;2277;51.626;7.516;2023-11-21T03:24:29;10.60;99.90
4530;DHT22;2277;51.626;7.516;2023-11-21T03:26:55;10.60;99.90
4530;DHT22;2277;51.626;7.516;2023-11-21T03:29:21;10.60;99.90
4530;DHT22;2277;51.626;7.516;2023-11-21T03:31:47;10.50;99.90
4530;DHT22;2277;51.626;7.516;2023-11-21T03:34:26;10.60;99.90
4530;DHT22;2277;51.626;7.516;2023-11-21T03:36:52;10.60;99.90
4530;DHT22;2277;51.626;7.516;2023-11-21T03:39:19;10.60;99.90
4530;DHT22;2277;51.626;7.516;2023-11-21T03:41:45;10.50;99.90
4530;DHT22;2277;51.626;7.516;2023-11-21T03:44:11;10.60;99.90
4530;DHT22;2277;51.626;7.516;2023-11-21T03:46:36;10.60;99.90
4530;DHT22;2277;51.626;7.516;2023-11-21T03:49:02;10.50;99.90
4530;DHT22;2277;51.626;7.516;2023-11-21T03:51:28;10.50;99.90
4530;DHT22;2277;51.626;7.516;2023-11-21T03:53:53;10.50;99.90
4530;DHT22;2277;51.626;7.516;2023-11-21T03:56:19;10.50;99.90
4530;DHT22;2277;51.626;7.516;2023-11-21T03:58:47;10.50;99.90
4530;DHT22;2277;51.626;7.516;2023-11-21T04:01:20;10.50;99.90
4530;DHT22;2277;51.626;7.516;2023-11-21T04:03:47;10.50;99.90
4530;DHT22;2277;51.626;7.516;2023-11-21T04:06:13;10.50;99.90
4530;DHT22;2277;51.626;7.516;2023-11-21T04:08:38;10.50;99.90
4530;DHT22;2277;51.626;7.516;2023-11-21T04:11:04;10.50;99.90
4530;DHT22;2277;51.626;7.516;2023-11-21T04:13:29;10.50;99.90
4530;DHT22;2277;51.626;7.516;2023-11-21T04:15:56;10.50;99.90
4530;DHT22;2277;51.626;7.516;2023-11-21T04:18:21;10.50;99.90
4530;DHT22;2277;51.626;7.516;2023-11-21T04:20:49;10.50;99.90
4530;DHT22;2277;51.626;7.516;2023-11-21T04:23:15;10.50;99.90
4530;DHT22;2277;51.626;7.516;2023-11-21T04:25:40;10.50;99.90
4530;DHT22;2277;51.626;7.516;2023-11-21T04:28:06;10.50;99.90
4530;DHT22;2277;51.626;7.516;2023-11-21T04:30:31;10.50;99.90
4530;DHT22;2277;51.626;7.516;2023-11-21T04:32:58;10.60;99.90
4530;DHT22;2277;51.626;7.516;2023-11-21T04:35:24;10.60;99.90
4530;DHT22;2277;51.626;7.516;2023-11-21T04:37:49;10.60;99.90
4530;DHT22;2277;51.626;7.516;2023-11-21T04:40:16;10.60;99.90
4530;DHT22;2277;51.626;7.516;2023-11-21T04:42:42;10.60;99.90
4530;DHT22;2277;51.626;7.516;2023-11-21T04:45:08;10.60;99.90
4530;DHT22;2277;51.626;7.516;2023-11-21T04:47:35;10.60;99.90
4530;DHT22;2277;51.626;7.516;2023-11-21T04:50:00;10.60;99.90
4530;DHT22;2277;51.626;7.516;2023-11-21T04:52:26;10.50;99.90
4530;DHT22;2277;51.626;7.516;2023-11-21T04:54:51;10.50;99.90
4530;DHT22;2277;51.626;7.516;2023-11-21T04:57:20;10.50;99.90
4530;DHT22;2277;51.626;7.516;2023-11-21T04:59:45;10.40;99.90
4530;DHT22;2277;51.626;7.516;2023-11-21T05:02:11;10.40;99.90
4530;DHT22;2277;51.626;7.516;2023-11-21T05:04:37;10.40;99.90
4530;DHT22;2277;51.626;7.516;2023-11-21T05:07:03;10.40;99.90
4530;DHT22;2277;51.626;7.516;2023-11-21T05:09:28;10.40;99.90
4530;DHT22;2277;51.626;7.516;2023-11-21T05:11:57;10.40;99.90
4530;DHT22;2277;51.626;7.516;2023-11-21T05:14:23;10.40;99.90
4530;DHT22;2277;51.626;7.516;2023-11-21T05:16:48;10.30;99.90
4530;DHT22;2277;51.626;7.516;2023-11-21T05:19:17;10.30;99.90
4530;DHT22;2277;51.626;7.516;2023-11-21T05:21:42;10.30;99.90
4530;DHT22;2277;51.626;7.516;2023-11-21T05:24:08;10.20;99.90
4530;DHT22;2277;51.626;7.516;2023-11-21T05:26:35;10.20;99.90
4530;DHT22;2277;51.626;7.516;2023-11-21T05:29:00;10.20;99.90
4530;DHT22;2277;51.626;7.516;2023-11-21T05:31:26;10.10;99.90
4530;DHT22;2277;51.626;7.516;2023-11-21T05:33:52;10.10;99.90
4530;DHT22;2277;51.626;7.516;2023-11-21T05:36:18;10.10;99.90
4530;DHT22;2277;51.626;7.516;2023-11-21T05:38:44;10.00;99.90
4530;DHT22;2277;51.626;7.516;2023-11-21T05:41:09;10.00;99.90
4530;DHT22;2277;51.626;7.516;2023-11-21T05:43:39;10.00;99.90
4530;DHT22;2277;51.626;7.516;2023-11-21T05:46:05;10.10;99.90
4530;DHT22;2277;51.626;7.516;2023-11-21T05:48:32;10.10;99.90
4530;DHT22;2277;51.626;7.516;2023-11-21T05:50:58;10.10;99.90
4530;DHT22;2277;51.626;7.516;2023-11-21T05:53:24;10.00;99.90
4530;DHT22;2277;51.626;7.516;2023-11-21T05:55:50;10.00;99.90
4530;DHT22;2277;51.626;7.516;2023-11-21T05:58:15;10.00;99.90
4530;DHT22;2277;51.626;7.516;2023-11-21T06:00:41;9.90;99.90
4530;DHT22;2277;51.626;7.516;2023-11-21T06:03:07;9.90;99.90
4530;DHT22;2277;51.626;7.516;2023-11-21T06:05:33;9.90;99.90
4530;DHT22;2277;51.626;7.516;2023-11-21T06:07:58;9.90;99.90
4530;DHT22;2277;51.626;7.516;2023-11-21T06:10:25;9.90;99.90
4530;DHT22;2277;51.626;7.516;2023-11-21T06:12:50;9.90;99.90
4530;DHT22;2277;51.626;7.516;2023-11-21T06:15:16;9.80;99.90
4530;DHT22;2277;51.626;7.516;2023-11-21T06:17:44;9.80;99.90
4530;DHT22;2277;51.626;7.516;2023-11-21T06:20:14;9.80;99.90
4530;DHT22;2277;51.626;7.516;2023-11-21T06:22:43;9.80;99.90
4530;DHT22;2277;51.626;7.516;2023-11-21T06:25:09;9.80;99.90
4530;DHT22;2277;51.626;7.516;2023-11-21T06:27:41;9.80;99.90
4530;DHT22;2277;51.626;7.516;2023-11-21T06:30:08;9.80;99.90
4530;DHT22;2277;51.626;7.516;2023-11-21T06:32:35;9.80;99.90
4530;DHT22;2277;51.626;7.516;2023-11-21T06:35:02;9.80;99.90
4530;DHT22;2277;51.626;7.516;2023-11-21T06:37:29;9.80;99.90
4530;DHT22;2277;51.626;7.516;2023-11-21T06:39:55;9.80;99.90
4530;DHT22;2277;51.626;7.516;2023-11-21T06:42:22;9.80;99.90
4530;DHT22;2277;51.626;7.516;2023-11-21T06:44:48;9.80;99.90
4530;DHT22;2277;51.626;7.516;2023-11-21T06:47:14;9.80;99.90
4530;DHT22;2277;51.626;7.516;2023-11-21T06:49:41;9.80;99.90
4530;DHT22;2277;51.626;7.516;2023-11-21T06:52:06;9.80;99.90
4530;DHT22;2277;51.626;7.516;2023-11-21T06:54:32;9.80;99.90
4530;DHT22;2277;51.626;7.516;2023-11-21T06:56:58;9.90;99.90
4530;DHT22;2277;51.626;7.516;2023-11-21T06:59:23;9.80;99.90
4530;DHT22;2277;51.626;7.516;2023-11-21T07:01:50;9.90;99.90
4530;DHT22;2277;51.626;7.516;2023-11-21T07:04:16;9.90;99.90
4530;DHT22;2277;51.626;7.516;2023-11-21T07:06:41;9.90;99.90
4530;DHT22;2277;51.626;7.516;2023-11-21T07:09:08;9.90;99.90
4530;DHT22;2277;51.626;7.516;2023-11-21T07:11:38;9.90;99.90
4530;DHT22;2277;51.626;7.516;2023-11-21T07:14:04;9.90;99.90
4530;DHT22;2277;51.626;7.516;2023-11-21T07:16:36;9.90;99.90
4530;DHT22;2277;51.626;7.516;2023-11-21T07:19:04;9.90;99.90
4530;DHT22;2277;51.626;7.516;2023-11-21T07:21:34;10.00;99.90
4530;DHT22;2277;51.626;7.516;2023-11-21T07:24:04;10.00;99.90
4530;DHT22;2277;51.626;7.516;2023-11-21T07:26:41;10.00;99.90
4530;DHT22;2277;51.626;7.516;2023-11-21T07:29:06;10.00;99.90
4530;DHT22;2277;51.626;7.516;2023-11-21T07:31:32;10.00;99.90
4530;DHT22;2277;51.626;7.516;2023-11-21T07:33:59;10.10;99.90
4530;DHT22;2277;51.626;7.516;2023-11-21T07:36:25;10.10;99.90
4530;DHT22;2277;51.626;7.516;2023-11-21T07:38:51;10.10;99.90
4530;DHT22;2277;51.626;7.516;2023-11-21T07:41:17;10.10;99.90
4530;DHT22;2277;51.626;7.516;2023-11-21T07:43:44;10.10;99.90
4530;DHT22;2277;51.626;7.516;2023-11-21T07:46:10;10.20;99.90
4530;DHT22;2277;51.626;7.516;2023-11-21T07:48:38;10.10;99.90
4530;DHT22;2277;51.626;7.516;2023-11-21T07:51:03;10.10;99.90
4530;DHT22;2277;51.626;7.516;2023-11-21T07:53:29;10.10;99.90
4530;DHT22;2277;51.626;7.516;2023-11-21T07:55:56;10.10;99.90
4530;DHT22;2277;51.626;7.516;2023-11-21T07:58:22;10.10;99.90
4530;DHT22;2277;51.626;7.516;2023-11-21T08:00:47;10.20;99.90
4530;DHT22;2277;51.626;7.516;2023-11-21T08:03:13;10.20;99.90
4530;DHT22;2277;51.626;7.516;2023-11-21T08:05:39;10.30;99.90
4530;DHT22;2277;51.626;7.516;2023-11-21T08:08:05;10.30;99.90
4530;DHT22;2277;51.626;7.516;2023-11-21T08:10:30;10.40;99.90
4530;DHT22;2277;51.626;7.516;2023-11-21T08:12:56;10.40;99.90
4530;DHT22;2277;51.626;7.516;2023-11-21T08:15:21;10.40;99.90
4530;DHT22;2277;51.626;7.516;2023-11-21T08:17:47;10.40;99.90
4530;DHT22;2277;51.626;7.516;2023-11-21T08:20:13;10.40;99.90
4530;DHT22;2277;51.626;7.516;2023-11-21T08:22:42;10.50;99.90
4530;DHT22;2277;51.626;7.516;2023-11-21T08:25:08;10.50;99.90
4530;DHT22;2277;51.626;7.516;2023-11-21T08:27:34;10.50;99.90
4530;DHT22;2277;51.626;7.516;2023-11-21T08:30:00;10.50;99.90
4530;DHT22;2277;51.626;7.516;2023-11-21T08:32:26;10.50;99.90
4530;DHT22;2277;51.626;7.516;2023-11-21T08:34:51;10.60;99.90
4530;DHT22;2277;51.626;7.516;2023-11-21T08:37:17;10.60;99.90
4530;DHT22;2277;51.626;7.516;2023-11-21T08:39:44;10.60;99.90
4530;DHT22;2277;51.626;7.516;2023-11-21T08:42:10;10.60;99.90
4530;DHT22;2277;51.626;7.516;2023-11-21T08:44:35;10.60;99.90
4530;DHT22;2277;51.626;7.516;2023-11-21T08:47:01;10.60;99.90
4530;DHT22;2277;51.626;7.516;2023-11-21T08:49:27;10.60;99.90
4530;DHT22;2277;51.626;7.516;2023-11-21T08:51:54;10.60;99.90
4530;DHT22;2277;51.626;7.516;2023-11-21T08:54:25;10.70;99.90
4530;DHT22;2277;51.626;7.516;2023-11-21T08:56:54;10.60;99.90
4530;DHT22;2277;51.626;7.516;2023-11-21T08:59:20;10.70;99.90
4530;DHT22;2277;51.626;7.516;2023-11-21T09:01:46;10.70;99.90
4530;DHT22;2277;51.626;7.516;2023-11-21T09:04:12;10.70;99.90
4530;DHT22;2277;51.626;7.516;2023-11-21T09:06:39;10.70;99.90
4530;DHT22;2277;51.626;7.516;2023-11-21T09:09:05;10.80;99.90
4530;DHT22;2277;51.626;7.516;2023-11-21T09:11:31;10.80;99.90
4530;DHT22;2277;51.626;7.516;2023-11-21T09:13:59;10.80;99.90
4530;DHT22;2277;51.626;7.516;2023-11-21T09:16:25;10.80;99.90
4530;DHT22;2277;51.626;7.516;2023-11-21T09:18:50;10.80;99.90
4530;DHT22;2277;51.626;7.516;2023-11-21T09:21:16;10.80;99.90
4530;DHT22;2277;51.626;7.516;2023-11-21T09:23:46;10.80;99.90
4530;DHT22;2277;51.626;7.516;2023-11-21T09:26:12;10.90;99.90
4530;DHT22;2277;51.626;7.516;2023-11-21T09:28:37;10.90;99.90
4530;DHT22;2277;51.626;7.516;2023-11-21T09:31:04;10.90;99.90
4530;DHT22;2277;51.626;7.516;2023-11-21T09:33:30;10.90;99.90
4530;DHT22;2277;51.626;7.516;2023-11-21T09:35:57;10.90;99.90
4530;DHT22;2277;51.626;7.516;2023-11-21T09:38:23;10.90;99.90
4530;DHT22;2277;51.626;7.516;2023-11-21T09:40:49;10.90;99.90
4530;DHT22;2277;51.626;7.516;2023-11-21T09:43:18;10.90;99.90
4530;DHT22;2277;51.626;7.516;2023-11-21T09:45:54;10.90;99.90
4530;DHT22;2277;51.626;7.516;2023-11-21T09:48:20;10.90;99.90
4530;DHT22;2277;51.626;7.516;2023-11-21T09:50:47;11.00;99.90
4530;DHT22;2277;51.626;7.516;2023-11-21T09:53:22;11.00;99.90
4530;DHT22;2277;51.626;7.516;2023-11-21T09:55:51;10.90;99.90
4530;DHT22;2277;51.626;7.516;2023-11-21T09:58:18;10.90;99.90
4530;DHT22;2277;51.626;7.516;2023-11-21T10:00:46;10.90;99.90
4530;DHT22;2277;51.626;7.516;2023-11-21T10:03:12;11.00;99.90
4530;DHT22;2277;51.626;7.516;2023-11-21T10:05:40;11.00;99.90
4530;DHT22;2277;51.626;7.516;2023-11-21T10:08:11;11.10;99.90
4530;DHT22;2277;51.626;7.516;2023-11-21T10:10:38;11.10;99.90
4530;DHT22;2277;51.626;7.516;2023-11-21T10:13:10;11.10;99.90
4530;DHT22;2277;51.626;7.516;2023-11-21T10:15:36;11.10;99.90
4530;DHT22;2277;51.626;7.516;2023-11-21T10:18:07;11.10;99.90
4530;DHT22;2277;51.626;7.516;2023-11-21T10:20:33;11.10;99.90
4530;DHT22;2277;51.626;7.516;2023-11-21T10:23:00;11.20;99.90
4530;DHT22;2277;51.626;7.516;2023-11-21T10:25:27;11.20;99.90
4530;DHT22;2277;51.626;7.516;2023-11-21T10:27:58;11.20;99.90
4530;DHT22;2277;51.626;7.516;2023-11-21T10:30:38;11.20;99.90
4530;DHT22;2277;51.626;7.516;2023-11-21T10:33:06;11.20;99.90
4530;DHT22;2277;51.626;7.516;2023-11-21T10:35:46;11.20;99.90
4530;DHT22;2277;51.626;7.516;2023-11-21T10:38:20;11.30;99.90
4530;DHT22;2277;51.626;7.516;2023-11-21T10:40:50;11.30;99.90
4530;DHT22;2277;51.626;7.516;2023-11-21T10:43:16;11.40;99.90
4530;DHT22;2277;51.626;7.516;2023-11-21T10:45:42;11.30;99.90
4530;DHT22;2277;51.626;7.516;2023-11-21T10:48:10;11.40;99.90
4530;DHT22;2277;51.626;7.516;2023-11-21T10:50:43;11.40;99.90
4530;DHT22;2277;51.626;7.516;2023-11-21T10:53:09;11.40;99.90
4530;DHT22;2277;51.626;7.516;2023-11-21T10:55:37;11.40;99.90
4530;DHT22;2277;51.626;7.516;2023-11-21T10:58:04;11.40;99.90
4530;DHT22;2277;51.626;7.516;2023-11-21T11:00:33;11.50;99.90
4530;DHT22;2277;51.626;7.516;2023-11-21T11:03:00;11.50;99.90
4530;DHT22;2277;51.626;7.516;2023-11-21T11:05:27;11.50;99.90
4530;DHT22;2277;51.626;7.516;2023-11-21T11:08:05;11.50;99.90
4530;DHT22;2277;51.626;7.516;2023-11-21T11:10:31;11.50;99.90
4530;DHT22;2277;51.626;7.516;2023-11-21T11:12:58;11.50;99.90
4530;DHT22;2277;51.626;7.516;2023-11-21T11:15:25;11.50;99.90
4530;DHT22;2277;51.626;7.516;2023-11-21T11:17:52;11.50;99.90
4530;DHT22;2277;51.626;7.516;2023-11-21T11:20:27;11.50;99.90
4530;DHT22;2277;51.626;7.516;2023-11-21T11:28:20;11.50;99.90
4530;DHT22;2277;51.626;7.516;2023-11-21T11:33:41;11.50;99.90
4530;DHT22;2277;51.626;7.516;2023-11-21T11:36:25;11.50;99.90
4530;DHT22;2277;51.626;7.516;2023-11-21T11:38:52;11.50;99.90
4530;DHT22;2277;51.626;7.516;2023-11-21T11:41:30;11.60;99.90
4530;DHT22;2277;51.626;7.516;2023-11-21T11:43:58;11.60;99.90
4530;DHT22;2277;51.626;7.516;2023-11-21T11:46:57;11.60;99.90
4530;DHT22;2277;51.626;7.516;2023-11-21T11:49:24;11.60;99.90
4530;DHT22;2277;51.626;7.516;2023-11-21T11:54:55;11.60;99.90
4530;DHT22;2277;51.626;7.516;2023-11-21T11:57:24;11.60;99.90
4530;DHT22;2277;51.626;7.516;2023-11-21T12:02:49;11.70;99.90
4530;DHT22;2277;51.626;7.516;2023-11-21T12:05:16;11.80;99.90
4530;DHT22;2277;51.626;7.516;2023-11-21T12:07:53;11.70;99.90
4530;DHT22;2277;51.626;7.516;2023-11-21T12:10:20;11.70;99.90
4530;DHT22;2277;51.626;7.516;2023-11-21T12:12:52;11.70;99.90
4530;DHT22;2277;51.626;7.516;2023-11-21T12:15:18;11.60;99.90
4530;DHT22;2277;51.626;7.516;2023-11-21T12:17:45;11.60;99.90
4530;DHT22;2277;51.626;7.516;2023-11-21T12:20:12;11.60;99.90
4530;DHT22;2277;51.626;7.516;2023-11-21T12:22:53;11.60;99.90
4530;DHT22;2277;51.626;7.516;2023-11-21T12:25:24;11.60;99.90
4530;DHT22;2277;51.626;7.516;2023-11-21T12:27:52;11.60;99.90
4530;DHT22;2277;51.626;7.516;2023-11-21T12:30:22;11.70;99.90
4530;DHT22;2277;51.626;7.516;2023-11-21T12:32:53;11.60;99.90
4530;DHT22;2277;51.626;7.516;2023-11-21T12:35:26;11.60;99.90
4530;DHT22;2277;51.626;7.516;2023-11-21T12:37:53;11.60;99.90
4530;DHT22;2277;51.626;7.516;2023-11-21T12:40:19;11.60;99.90
4530;DHT22;2277;51.626;7.516;2023-11-21T12:42:51;11.60;99.90
4530;DHT22;2277;51.626;7.516;2023-11-21T12:47:50;11.50;99.90
4530;DHT22;2277;51.626;7.516;2023-11-21T12:50:19;11.50;99.90
4530;DHT22;2277;51.626;7.516;2023-11-21T12:52:50;11.50;99.90
4530;DHT22;2277;51.626;7.516;2023-11-21T12:55:20;11.50;99.90
4530;DHT22;2277;51.626;7.516;2023-11-21T12:57:50;11.50;99.90
4530;DHT22;2277;51.626;7.516;2023-11-21T13:00:33;11.50;99.90
4530;DHT22;2277;51.626;7.516;2023-11-21T13:02:59;11.60;99.90
4530;DHT22;2277;51.626;7.516;2023-11-21T13:05:29;11.60;99.90
4530;DHT22;2277;51.626;7.516;2023-11-21T13:07:57;11.60;99.90
4530;DHT22;2277;51.626;7.516;2023-11-21T13:10:26;11.60;99.90
4530;DHT22;2277;51.626;7.516;2023-11-21T13:13:00;11.60;99.90
4530;DHT22;2277;51.626;7.516;2023-11-21T13:15:29;11.60;99.90
4530;DHT22;2277;51.626;7.516;2023-11-21T13:17:57;11.60;99.90
4530;DHT22;2277;51.626;7.516;2023-11-21T13:20:23;11.60;99.90
4530;DHT22;2277;51.626;7.516;2023-11-21T13:22:54;11.60;99.90
4530;DHT22;2277;51.626;7.516;2023-11-21T13:25:23;11.60;99.90
4530;DHT22;2277;51.626;7.516;2023-11-21T13:27:49;11.60;99.90
4530;DHT22;2277;51.626;7.516;2023-11-21T13:30:16;11.60;99.90
4530;DHT22;2277;51.626;7.516;2023-11-21T13:32:45;11.60;99.90
4530;DHT22;2277;51.626;7.516;2023-11-21T13:35:17;11.60;99.90
4530;DHT22;2277;51.626;7.516;2023-11-21T13:37:57;11.50;99.90
4530;DHT22;2277;51.626;7.516;2023-11-21T13:40:26;11.50;99.90
4530;DHT22;2277;51.626;7.516;2023-11-21T13:42:55;11.50;99.90
4530;DHT22;2277;51.626;7.516;2023-11-21T13:45:25;11.40;99.90
4530;DHT22;2277;51.626;7.516;2023-11-21T13:47:53;11.40;99.90
4530;DHT22;2277;51.626;7.516;2023-11-21T13:50:27;11.40;99.90
4530;DHT22;2277;51.626;7.516;2023-11-21T13:52:59;11.40;99.90
4530;DHT22;2277;51.626;7.516;2023-11-21T13:55:44;11.40;99.90
4530;DHT22;2277;51.626;7.516;2023-11-21T13:58:11;11.40;99.90
4530;DHT22;2277;51.626;7.516;2023-11-21T14:00:42;11.50;99.90
4530;DHT22;2277;51.626;7.516;2023-11-21T14:03:14;11.40;99.90
4530;DHT22;2277;51.626;7.516;2023-11-21T14:05:49;11.40;99.90
4530;DHT22;2277;51.626;7.516;2023-11-21T14:08:21;11.30;99.90
4530;DHT22;2277;51.626;7.516;2023-11-21T14:10:49;11.20;99.90
4530;DHT22;2277;51.626;7.516;2023-11-21T14:13:18;11.30;99.90
4530;DHT22;2277;51.626;7.516;2023-11-21T14:15:45;11.30;99.90
4530;DHT22;2277;51.626;7.516;2023-11-21T14:18:12;11.20;99.90
4530;DHT22;2277;51.626;7.516;2023-11-21T14:20:42;11.20;99.90
4530;DHT22;2277;51.626;7.516;2023-11-21T14:23:08;11.20;99.90
4530;DHT22;2277;51.626;7.516;2023-11-21T14:25:36;11.10;99.90
4530;DHT22;2277;51.626;7.516;2023-11-21T14:28:03;11.10;99.90
4530;DHT22;2277;51.626;7.516;2023-11-21T14:30:29;11.10;99.90
4530;DHT22;2277;51.626;7.516;2023-11-21T14:33:00;11.10;99.90
4530;DHT22;2277;51.626;7.516;2023-11-21T14:35:26;11.00;99.90
4530;DHT22;2277;51.626;7.516;2023-11-21T14:37:52;11.10;99.90
4530;DHT22;2277;51.626;7.516;2023-11-21T14:40:18;11.10;99.90
4530;DHT22;2277;51.626;7.516;2023-11-21T14:42:48;11.10;99.90
4530;DHT22;2277;51.626;7.516;2023-11-21T14:45:13;11.10;99.90
4530;DHT22;2277;51.626;7.516;2023-11-21T14:47:45;11.00;99.90
4530;DHT22;2277;51.626;7.516;2023-11-21T14:50:17;11.00;99.90
4530;DHT22;2277;51.626;7.516;2023-11-21T14:53:04;10.90;99.90
4530;DHT22;2277;51.626;7.516;2023-11-21T14:55:32;10.90;99.90
4530;DHT22;2277;51.626;7.516;2023-11-21T14:58:06;10.80;99.90
4530;DHT22;2277;51.626;7.516;2023-11-21T15:00:37;10.70;99.90
4530;DHT22;2277;51.626;7.516;2023-11-21T15:03:10;10.70;99.90
4530;DHT22;2277;51.626;7.516;2023-11-21T15:05:36;10.60;99.90
4530;DHT22;2277;51.626;7.516;2023-11-21T15:08:04;10.60;99.90
4530;DHT22;2277;51.626;7.516;2023-11-21T15:10:47;10.50;99.90
4530;DHT22;2277;51.626;7.516;2023-11-21T15:13:18;10.40;99.90
4530;DHT22;2277;51.626;7.516;2023-11-21T15:15:44;10.30;99.90
4530;DHT22;2277;51.626;7.516;2023-11-21T15:18:10;10.40;99.90
4530;DHT22;2277;51.626;7.516;2023-11-21T15:20:41;10.30;99.90
4530;DHT22;2277;51.626;7.516;2023-11-21T15:23:08;10.30;99.90
4530;DHT22;2277;51.626;7.516;2023-11-21T15:25:34;10.30;99.90
4530;DHT22;2277;51.626;7.516;2023-11-21T15:28:00;10.30;99.90
4530;DHT22;2277;51.626;7.516;2023-11-21T15:30:26;10.30;99.90
4530;DHT22;2277;51.626;7.516;2023-11-21T15:32:52;10.20;99.90
4530;DHT22;2277;51.626;7.516;2023-11-21T15:35:20;10.20;99.90
4530;DHT22;2277;51.626;7.516;2023-11-21T15:37:46;10.20;99.90
4530;DHT22;2277;51.626;7.516;2023-11-21T15:40:12;10.20;99.90
4530;DHT22;2277;51.626;7.516;2023-11-21T15:42:40;10.20;99.90
4530;DHT22;2277;51.626;7.516;2023-11-21T15:45:06;10.10;99.90
4530;DHT22;2277;51.626;7.516;2023-11-21T15:47:32;10.00;99.90
4530;DHT22;2277;51.626;7.516;2023-11-21T15:49:58;10.10;99.90
4530;DHT22;2277;51.626;7.516;2023-11-21T15:52:24;10.10;99.90
4530;DHT22;2277;51.626;7.516;2023-11-21T15:54:49;10.00;99.90
4530;DHT22;2277;51.626;7.516;2023-11-21T15:57:15;10.00;99.90
4530;DHT22;2277;51.626;7.516;2023-11-21T15:59:42;10.00;99.90
4530;DHT22;2277;51.626;7.516;2023-11-21T16:02:09;10.00;99.90
4530;DHT22;2277;51.626;7.516;2023-11-21T16:04:36;9.90;99.90
4530;DHT22;2277;51.626;7.516;2023-11-21T16:07:06;9.90;99.90
4530;DHT22;2277;51.626;7.516;2023-11-21T16:09:33;9.90;99.90
4530;DHT22;2277;51.626;7.516;2023-11-21T16:12:04;10.00;99.90
4530;DHT22;2277;51.626;7.516;2023-11-21T16:14:35;9.90;99.90
4530;DHT22;2277;51.626;7.516;2023-11-21T16:17:02;9.90;99.90
4530;DHT22;2277;51.626;7.516;2023-11-21T16:19:28;9.80;99.90
4530;DHT22;2277;51.626;7.516;2023-11-21T16:21:54;9.90;99.90